Time;durP1;ratioP1;P1;durP2;ratioP2;P2;SDS_P1;SDS_P2;PMS_P1;PMS_P2;Temp;Humidity;BMP_temperature;BMP_pressure;BME280_temperature;BME280_humidity;BME280_pressure;Samples;Min_cycle;Max_cycle;Signal;HPM_P1;HPM_P2
2023/05/11 00:01:49;;;;;;;6.45;3.28;;;12.00;99.90;;;;;;4984641;28;20405;-72
2023/05/11 00:04:15;;;;;;;5.57;2.80;;;11.90;99.90;;;;;;4986671;28;20092;-73
2023/05/11 00:06:41;;;;;;;5.43;2.65;;;11.90;99.90;;;;;;4976770;28;20066;-73
2023/05/11 00:09:08;;;;;;;7.28;2.97;;;11.90;99.90;;;;;;4980390;28;20128;-73
2023/05/11 00:11:34;;;;;;;4.75;2.47;;;11.90;99.90;;;;;;4968967;28;20133;-72
2023/05/11 00:13:59;;;;;;;4.75;3.08;;;11.90;99.90;;;;;;4986938;28;20528;-73
2023/05/11 00:16:25;;;;;;;5.03;2.70;;;11.90;99.90;;;;;;4986686;28;20049;-73
2023/05/11 00:18:51;;;;;;;6.22;3.55;;;11.90;99.90;;;;;;4987021;28;20050;-73
2023/05/11 00:21:16;;;;;;;5.82;3.30;;;11.90;99.90;;;;;;4986791;28;20096;-72
2023/05/11 00:23:42;;;;;;;6.07;2.70;;;11.90;99.90;;;;;;4986184;28;20437;-73
2023/05/11 00:26:07;;;;;;;7.43;2.72;;;11.90;99.90;;;;;;4985731;28;20070;-74
2023/05/11 00:28:33;;;;;;;7.38;3.42;;;12.00;99.90;;;;;;4986332;28;20096;-73
2023/05/11 00:30:59;;;;;;;6.25;3.47;;;11.90;99.90;;;;;;4985716;28;20046;-73
2023/05/11 00:33:24;;;;;;;5.55;2.45;;;12.00;99.90;;;;;;4985809;28;20047;-73
2023/05/11 00:35:50;;;;;;;4.35;2.75;;;11.90;99.90;;;;;;4986349;28;20042;-72
2023/05/11 00:38:16;;;;;;;6.57;2.90;;;11.90;99.90;;;;;;4984655;28;20085;-73
2023/05/11 00:40:41;;;;;;;5.65;2.40;;;11.90;99.90;;;;;;4985619;28;20042;-73
2023/05/11 00:43:07;;;;;;;5.45;2.22;;;11.90;99.90;;;;;;4986697;28;20045;-73
2023/05/11 00:45:34;;;;;;;6.80;2.78;;;11.90;99.90;;;;;;4984593;28;20504;-73
2023/05/11 00:48:00;;;;;;;9.75;3.70;;;11.90;99.90;;;;;;4984789;28;20054;-73
2023/05/11 00:50:26;;;;;;;8.57;2.92;;;11.90;99.90;;;;;;4985907;28;20046;-74
2023/05/11 00:52:52;;;;;;;4.55;2.20;;;11.90;99.90;;;;;;4986422;28;20459;-72
2023/05/11 00:55:21;;;;;;;6.22;2.78;;;11.90;99.90;;;;;;4986511;28;20042;-72
2023/05/11 00:57:47;;;;;;;8.45;3.72;;;11.90;99.90;;;;;;4984905;28;20073;-73
2023/05/11 01:00:13;;;;;;;4.72;2.63;;;11.90;99.90;;;;;;4986198;28;20042;-72
2023/05/11 01:02:39;;;;;;;3.47;2.47;;;11.90;99.90;;;;;;4984568;28;20042;-73
2023/05/11 01:05:06;;;;;;;7.68;2.90;;;11.90;99.90;;;;;;4985927;28;20509;-72
2023/05/11 01:07:56;;;;;;;6.90;3.50;;;11.90;99.90;;;;;;4985109;28;20519;-73
2023/05/11 01:13:03;;;;;;;8.07;3.30;;;11.80;99.90;;;;;;4983243;28;20618;-73
2023/05/11 01:15:51;;;;;;;4.88;2.08;;;11.90;99.90;;;;;;4984891;28;20549;-73
2023/05/11 01:18:36;;;;;;;6.90;2.95;;;11.80;99.90;;;;;;4983877;28;20492;-73
2023/05/11 01:21:04;;;;;;;5.40;3.30;;;11.90;99.90;;;;;;4984950;28;20042;-73
2023/05/11 01:23:49;;;;;;;4.72;2.40;;;11.80;99.90;;;;;;4985542;28;20046;-72
2023/05/11 01:26:29;;;;;;;5.80;2.17;;;11.90;99.90;;;;;;4984462;28;20475;-73
2023/05/11 01:29:09;;;;;;;8.07;2.90;;;11.80;99.90;;;;;;4986870;28;20042;-72
2023/05/11 01:31:41;;;;;;;5.13;2.60;;;11.90;99.90;;;;;;4984024;28;20065;-73
2023/05/11 01:34:30;;;;;;;7.57;2.95;;;11.90;99.90;;;;;;4985722;28;20088;-73
2023/05/11 01:37:03;;;;;;;6.72;3.33;;;11.80;99.90;;;;;;4985877;28;20038;-74
2023/05/11 01:39:33;;;;;;;5.40;2.95;;;11.80;99.90;;;;;;4985496;28;20054;-73
2023/05/11 01:42:05;;;;;;;3.83;2.60;;;11.80;99.90;;;;;;4985682;28;20038;-73
2023/05/11 01:44:33;;;;;;;5.13;2.45;;;11.80;99.90;;;;;;4985334;28;20065;-73
2023/05/11 01:47:01;;;;;;;17.92;2.63;;;11.90;99.90;;;;;;4984391;28;20038;-73
2023/05/11 01:49:28;;;;;;;7.80;2.83;;;11.90;99.90;;;;;;4985384;28;20095;-73
2023/05/11 01:51:56;;;;;;;5.40;2.72;;;11.90;99.90;;;;;;4985566;28;20050;-73
2023/05/11 01:54:23;;;;;;;5.25;2.95;;;11.80;99.90;;;;;;4985617;28;20054;-72
2023/05/11 01:56:49;;;;;;;6.07;3.60;;;11.80;99.90;;;;;;4985573;28;20092;-72
2023/05/11 01:59:17;;;;;;;7.47;2.90;;;11.80;99.90;;;;;;4984786;28;20656;-73
2023/05/11 02:01:43;;;;;;;4.28;3.03;;;11.80;99.90;;;;;;4983885;28;20042;-73
2023/05/11 02:04:10;;;;;;;9.93;3.15;;;11.80;99.90;;;;;;4983748;28;20050;-73
2023/05/11 02:06:38;;;;;;;6.63;3.20;;;11.80;99.90;;;;;;4983244;28;20049;-73
2023/05/11 02:09:06;;;;;;;7.70;3.08;;;11.80;99.90;;;;;;4984988;28;20057;-72
2023/05/11 02:11:34;;;;;;;5.93;3.47;;;11.80;99.90;;;;;;4990307;28;20057;-73
2023/05/11 02:14:00;;;;;;;5.38;2.65;;;11.80;99.90;;;;;;5004239;28;20447;-73
2023/05/11 02:16:27;;;;;;;4.75;2.60;;;11.70;99.90;;;;;;5003508;28;20049;-74
2023/05/11 02:18:54;;;;;;;5.05;2.42;;;11.70;99.90;;;;;;5003526;28;20049;-73
2023/05/11 02:21:21;;;;;;;6.15;2.95;;;11.70;99.90;;;;;;5003248;28;20096;-72
2023/05/11 02:23:48;;;;;;;8.10;3.53;;;11.70;99.90;;;;;;4984047;28;20054;-74
2023/05/11 02:26:15;;;;;;;8.82;2.97;;;11.70;99.90;;;;;;4984636;28;20078;-73
2023/05/11 02:28:42;;;;;;;10.75;2.97;;;11.70;99.90;;;;;;4984778;28;20125;-72
2023/05/11 02:31:23;;;;;;;34.95;4.50;;;11.70;99.90;;;;;;4982330;28;20392;-73
2023/05/11 02:33:52;;;;;;;8.25;3.13;;;11.70;99.90;;;;;;4984512;28;20157;-72
2023/05/11 02:36:21;;;;;;;7.82;3.22;;;11.70;99.90;;;;;;4984075;28;20045;-73
2023/05/11 02:38:47;;;;;;;6.78;2.72;;;11.70;99.90;;;;;;4984239;28;20707;-73
2023/05/11 02:41:20;;;;;;;8.07;3.63;;;11.70;99.90;;;;;;4999559;28;20074;-73
2023/05/11 02:43:49;;;;;;;3.72;2.33;;;11.70;99.90;;;;;;4982932;28;20054;-73
2023/05/11 02:46:20;;;;;;;5.63;3.00;;;11.70;99.90;;;;;;4983613;28;20475;-73
2023/05/11 02:48:51;;;;;;;6.18;3.10;;;11.70;99.90;;;;;;4982341;28;20125;-73
2023/05/11 02:51:21;;;;;;;5.25;3.20;;;11.70;99.90;;;;;;4984142;28;20042;-73
2023/05/11 02:53:48;;;;;;;4.95;2.78;;;11.70;99.90;;;;;;4984251;28;20042;-72
2023/05/11 02:56:14;;;;;;;6.22;2.63;;;11.70;99.90;;;;;;4983991;28;20137;-73
2023/05/11 02:58:40;;;;;;;8.38;3.53;;;11.60;99.90;;;;;;4984207;28;20046;-72
2023/05/11 03:01:06;;;;;;;7.70;3.35;;;11.60;99.90;;;;;;4983418;28;20047;-73
2023/05/11 03:03:32;;;;;;;7.88;3.33;;;11.60;99.90;;;;;;4983544;28;20093;-73
2023/05/11 03:05:58;;;;;;;3.60;2.35;;;11.60;99.90;;;;;;4984280;28;20448;-73
2023/05/11 03:08:24;;;;;;;6.45;3.55;;;11.60;99.90;;;;;;4984170;28;20038;-73
2023/05/11 03:10:51;;;;;;;5.57;3.58;;;11.60;99.90;;;;;;4989610;28;20064;-73
2023/05/11 03:13:19;;;;;;;9.52;3.45;;;11.60;99.90;;;;;;5003313;28;20058;-73
2023/05/11 03:15:45;;;;;;;8.30;4.50;;;11.70;99.90;;;;;;5003358;28;20463;-73
2023/05/11 03:18:11;;;;;;;7.35;3.83;;;11.70;99.90;;;;;;4997613;28;20121;-72
2023/05/11 03:20:39;;;;;;;7.20;3.30;;;11.70;99.90;;;;;;4983300;28;20444;-73
2023/05/11 03:23:06;;;;;;;9.30;3.22;;;11.70;99.90;;;;;;4984308;28;20055;-72
2023/05/11 03:25:32;;;;;;;8.65;3.83;;;11.70;99.90;;;;;;4981994;28;20042;-73
2023/05/11 03:27:59;;;;;;;24.98;3.90;;;11.70;99.90;;;;;;4984111;28;20057;-73
2023/05/11 03:30:26;;;;;;;10.48;3.65;;;11.70;99.90;;;;;;4984268;28;20125;-72
2023/05/11 03:32:52;;;;;;;9.38;3.42;;;11.70;99.90;;;;;;4982962;28;20085;-73
2023/05/11 03:35:18;;;;;;;8.30;3.58;;;11.70;99.90;;;;;;4985950;28;20517;-72
2023/05/11 03:37:44;;;;;;;9.73;3.88;;;11.70;99.90;;;;;;4987245;28;20038;-73
2023/05/11 03:40:13;;;;;;;8.95;4.13;;;11.60;99.90;;;;;;4988278;28;20038;-73
2023/05/11 03:42:40;;;;;;;7.95;3.70;;;11.60;99.90;;;;;;4986162;28;20117;-72
2023/05/11 03:45:07;;;;;;;4.90;2.60;;;11.60;99.90;;;;;;4987320;28;20082;-74
2023/05/11 03:47:34;;;;;;;6.80;3.13;;;11.60;99.90;;;;;;4985870;28;20038;-72
2023/05/11 03:50:01;;;;;;;6.78;2.80;;;11.60;99.90;;;;;;4987722;28;20401;-72
2023/05/11 03:52:28;;;;;;;7.00;3.53;;;11.60;99.90;;;;;;4987155;28;20307;-74
2023/05/11 03:54:54;;;;;;;7.28;3.47;;;11.60;99.90;;;;;;4988289;28;20034;-72
2023/05/11 03:57:19;;;;;;;6.60;3.05;;;11.60;99.90;;;;;;4987195;28;20133;-73
2023/05/11 03:59:45;;;;;;;7.40;3.35;;;11.60;99.90;;;;;;4987328;28;20522;-72
2023/05/11 04:02:11;;;;;;;8.35;3.65;;;11.60;99.90;;;;;;4986201;28;20101;-73
2023/05/11 04:04:36;;;;;;;10.25;3.70;;;11.60;99.90;;;;;;4987135;28;20448;-72
2023/05/11 04:07:02;;;;;;;6.57;3.95;;;11.60;99.90;;;;;;4985869;28;20634;-73
2023/05/11 04:09:28;;;;;;;5.47;2.75;;;11.60;99.90;;;;;;4987179;28;20038;-73
2023/05/11 04:11:53;;;;;;;34.63;5.13;;;11.60;99.90;;;;;;5002347;28;20120;-72
2023/05/11 04:14:21;;;;;;;14.32;4.13;;;11.60;99.90;;;;;;5006839;28;20045;-73
2023/05/11 04:16:47;;;;;;;8.43;3.58;;;11.60;99.90;;;;;;5005260;28;20038;-73
2023/05/11 04:19:13;;;;;;;5.60;2.45;;;11.60;99.90;;;;;;5006468;28;20045;-73
2023/05/11 04:21:38;;;;;;;6.40;1.50;;;11.50;99.90;;;;;;4987149;28;20106;-72
2023/05/11 04:24:05;;;;;;;17.50;3.50;;;11.60;99.90;;;;;;4986874;28;20567;-73
2023/05/11 04:26:30;;;;;;;4.20;2.38;;;11.50;99.90;;;;;;4986055;28;20125;-72
2023/05/11 04:28:56;;;;;;;6.28;2.55;;;11.50;99.90;;;;;;4986789;28;20121;-73
2023/05/11 04:31:22;;;;;;;3.53;1.83;;;11.50;99.90;;;;;;4986268;28;20409;-72
2023/05/11 04:33:47;;;;;;;4.55;2.10;;;11.50;99.90;;;;;;4986466;28;20045;-73
2023/05/11 04:36:13;;;;;;;3.90;2.00;;;11.50;99.90;;;;;;4985659;28;20042;-72
2023/05/11 04:38:38;;;;;;;14.45;2.42;;;11.50;99.90;;;;;;4984987;28;20038;-73
2023/05/11 04:41:05;;;;;;;8.35;1.95;;;11.50;99.90;;;;;;4988579;28;20050;-73
2023/05/11 04:43:31;;;;;;;4.38;1.65;;;11.50;99.90;;;;;;4991028;28;20108;-72
2023/05/11 04:45:58;;;;;;;6.47;2.13;;;11.40;99.90;;;;;;4985465;28;20493;-74
2023/05/11 04:48:23;;;;;;;8.50;1.58;;;11.40;99.90;;;;;;4985940;28;20489;-73
2023/05/11 04:50:49;;;;;;;11.52;1.52;;;11.40;99.90;;;;;;4990890;28;20081;-73
2023/05/11 04:53:15;;;;;;;3.17;2.28;;;11.40;99.90;;;;;;4987390;28;20046;-73
2023/05/11 04:55:40;;;;;;;3.25;1.05;;;11.40;99.90;;;;;;4985194;28;20514;-73
2023/05/11 04:58:06;;;;;;;3.28;1.95;;;11.30;99.90;;;;;;4986075;28;20060;-73
2023/05/11 05:00:31;;;;;;;2.88;1.25;;;11.30;99.90;;;;;;4985237;28;20039;-74
2023/05/11 05:02:57;;;;;;;3.08;1.80;;;11.30;99.90;;;;;;4985370;28;20416;-72
2023/05/11 05:05:23;;;;;;;3.03;1.25;;;11.30;99.90;;;;;;4985113;28;20118;-73
2023/05/11 05:07:48;;;;;;;3.90;1.25;;;11.30;99.90;;;;;;4984998;28;20046;-73
2023/05/11 05:10:14;;;;;;;3.03;1.63;;;11.30;99.90;;;;;;4987812;28;20041;-73
2023/05/11 05:12:40;;;;;;;3.17;1.27;;;11.30;99.90;;;;;;4984945;28;20133;-74
2023/05/11 05:15:06;;;;;;;1.75;1.00;;;11.40;99.90;;;;;;4985247;28;20073;-73
2023/05/11 05:17:32;;;;;;;2.47;1.63;;;11.40;99.90;;;;;;4984931;28;20506;-74
2023/05/11 05:19:57;;;;;;;1.80;1.13;;;11.40;99.90;;;;;;4984021;28;20189;-74
2023/05/11 05:22:24;;;;;;;3.03;1.20;;;11.40;99.90;;;;;;4986319;28;20042;-73
2023/05/11 05:24:50;;;;;;;3.40;0.80;;;11.40;99.90;;;;;;4985810;28;20112;-73
2023/05/11 05:27:15;;;;;;;1.60;1.10;;;11.40;99.90;;;;;;4984592;28;20054;-74
2023/05/11 05:29:41;;;;;;;2.90;1.35;;;11.40;99.90;;;;;;4984381;28;20053;-74
2023/05/11 05:32:07;;;;;;;1.77;1.20;;;11.40;99.90;;;;;;4988848;28;20081;-74
2023/05/11 05:34:32;;;;;;;1.42;0.98;;;11.40;99.90;;;;;;4985302;28;20046;-73
2023/05/11 05:36:58;;;;;;;3.13;1.10;;;11.40;99.90;;;;;;4985434;28;20042;-74
2023/05/11 05:39:23;;;;;;;4.43;2.08;;;11.40;99.90;;;;;;4983601;28;20046;-74
2023/05/11 05:41:49;;;;;;;2.92;1.58;;;11.40;99.90;;;;;;4983192;28;20049;-74
2023/05/11 05:44:15;;;;;;;1.88;1.13;;;11.40;99.90;;;;;;4983696;28;20707;-75
2023/05/11 05:46:41;;;;;;;2.97;0.93;;;11.50;99.90;;;;;;4981815;28;20168;-75
2023/05/11 05:49:06;;;;;;;2.72;1.10;;;11.40;99.90;;;;;;4985207;28;20054;-75
2023/05/11 05:51:32;;;;;;;2.28;1.10;;;11.40;99.90;;;;;;4976179;28;20552;-75
2023/05/11 05:53:58;;;;;;;1.60;1.15;;;11.40;99.90;;;;;;4984434;28;20046;-75
2023/05/11 05:56:23;;;;;;;2.58;0.90;;;11.40;99.90;;;;;;4983742;28;20046;-75
2023/05/11 05:58:49;;;;;;;2.03;1.20;;;11.40;99.90;;;;;;4983821;28;20504;-76
2023/05/11 06:01:14;;;;;;;2.58;1.30;;;11.40;99.90;;;;;;4986730;28;20045;-75
2023/05/11 06:03:40;;;;;;;1.63;0.75;;;11.40;99.90;;;;;;4984002;28;20042;-74
2023/05/11 06:06:06;;;;;;;1.67;0.80;;;11.50;99.90;;;;;;4984441;28;20413;-76
2023/05/11 06:08:32;;;;;;;1.88;1.08;;;11.50;99.90;;;;;;4982872;28;20042;-75
2023/05/11 06:10:58;;;;;;;3.42;1.48;;;11.50;99.90;;;;;;4992178;28;20054;-76
2023/05/11 06:13:24;;;;;;;1.90;0.95;;;11.50;99.90;;;;;;5002291;28;20203;-75
2023/05/11 06:15:49;;;;;;;3.08;1.50;;;11.50;99.90;;;;;;5001499;28;20042;-75
2023/05/11 06:18:15;;;;;;;1.67;0.93;;;11.50;99.90;;;;;;5001454;28;20049;-75
2023/05/11 06:20:41;;;;;;;2.75;0.95;;;11.60;99.90;;;;;;5003134;28;20042;-75
2023/05/11 06:23:07;;;;;;;1.83;0.90;;;11.60;99.90;;;;;;5002428;28;20438;-73
2023/05/11 06:25:34;;;;;;;1.63;0.95;;;11.60;99.90;;;;;;5003331;28;20042;-72
2023/05/11 06:27:59;;;;;;;3.13;1.00;;;11.60;99.90;;;;;;5002714;28;20108;-73
2023/05/11 06:30:25;;;;;;;1.10;1.00;;;11.60;99.90;;;;;;4984564;28;20562;-73
2023/05/11 06:32:50;;;;;;;1.25;0.70;;;11.60;99.90;;;;;;5001794;28;20050;-73
2023/05/11 06:35:16;;;;;;;1.85;0.93;;;11.70;99.90;;;;;;5002798;28;20053;-73
2023/05/11 06:37:41;;;;;;;6.65;3.38;;;11.70;99.90;;;;;;5002293;28;20045;-73
2023/05/11 06:40:08;;;;;;;1.73;1.10;;;11.70;99.90;;;;;;5002352;28;20538;-73
2023/05/11 06:42:34;;;;;;;2.17;1.25;;;11.70;99.90;;;;;;5002564;28;20112;-73
2023/05/11 06:45:00;;;;;;;1.58;0.73;;;11.70;99.90;;;;;;5002416;28;20382;-73
2023/05/11 06:47:25;;;;;;;2.55;1.25;;;11.70;99.90;;;;;;5000701;28;20050;-74
2023/05/11 06:49:51;;;;;;;2.17;0.93;;;11.80;99.90;;;;;;5002737;28;20041;-73
2023/05/11 06:52:16;;;;;;;1.65;0.80;;;11.70;99.90;;;;;;5002501;28;20103;-72
2023/05/11 06:54:42;;;;;;;1.38;1.17;;;11.70;99.90;;;;;;5002116;28;20427;-72
2023/05/11 06:57:08;;;;;;;2.10;0.93;;;11.80;99.90;;;;;;5001320;28;20057;-73
2023/05/11 06:59:33;;;;;;;1.50;0.95;;;11.80;99.90;;;;;;5001497;28;20042;-73
2023/05/11 07:01:59;;;;;;;1.38;0.85;;;11.80;99.90;;;;;;5001443;28;20394;-73
2023/05/11 07:04:25;;;;;;;1.60;0.88;;;11.90;99.90;;;;;;4984983;28;20052;-73
2023/05/11 07:06:50;;;;;;;1.92;1.15;;;11.90;99.90;;;;;;5002377;28;20568;-73
2023/05/11 07:09:16;;;;;;;2.33;0.90;;;11.90;99.90;;;;;;5000330;28;20447;-73
2023/05/11 07:11:42;;;;;;;1.33;0.90;;;12.00;99.90;;;;;;4985394;28;20050;-73
2023/05/11 07:14:07;;;;;;;2.25;0.88;;;12.00;99.90;;;;;;4982505;28;20428;-73
2023/05/11 07:16:37;;;;;;;1.23;0.70;;;12.00;99.90;;;;;;4981219;28;20057;-73
2023/05/11 07:19:03;;;;;;;1.98;1.23;;;12.00;99.90;;;;;;4982603;28;20053;-73
2023/05/11 07:21:30;;;;;;;0.68;0.60;;;12.00;99.90;;;;;;4981847;28;20038;-73
2023/05/11 07:23:56;;;;;;;1.48;1.20;;;12.10;99.90;;;;;;4982084;28;20555;-74
2023/05/11 07:26:22;;;;;;;1.88;1.08;;;12.10;99.90;;;;;;4983087;28;20035;-73
2023/05/11 07:28:47;;;;;;;2.45;1.20;;;12.10;99.90;;;;;;4980603;28;20046;-73
2023/05/11 07:31:13;;;;;;;2.75;1.35;;;12.10;99.90;;;;;;4980436;28;20046;-73
2023/05/11 07:33:38;;;;;;;4.53;2.17;;;12.10;99.90;;;;;;4964485;28;20133;-75
2023/05/11 07:36:05;;;;;;;1.30;1.02;;;12.10;99.90;;;;;;4982720;28;20401;-75
2023/05/11 07:38:31;;;;;;;2.40;1.40;;;12.20;99.90;;;;;;4980959;28;20124;-75
2023/05/11 07:40:56;;;;;;;3.33;1.05;;;12.20;99.90;;;;;;4982407;28;20556;-76
2023/05/11 07:43:22;;;;;;;1.48;1.38;;;12.20;99.90;;;;;;4981232;28;20034;-75
2023/05/11 07:45:47;;;;;;;2.33;1.20;;;12.20;99.90;;;;;;4979555;28;20129;-76
2023/05/11 07:48:14;;;;;;;3.20;1.30;;;12.30;99.90;;;;;;4982819;28;20485;-75
2023/05/11 07:50:41;;;;;;;1.23;1.10;;;12.30;99.90;;;;;;4982018;28;20042;-75
2023/05/11 07:53:06;;;;;;;2.85;1.17;;;12.50;99.90;;;;;;4982362;28;20046;-76
2023/05/11 07:55:32;;;;;;;2.20;1.42;;;12.40;99.90;;;;;;4982172;28;20048;-76
2023/05/11 07:57:58;;;;;;;2.13;1.23;;;12.40;99.90;;;;;;4982412;28;20066;-73
2023/05/11 08:00:24;;;;;;;2.58;1.35;;;12.50;99.90;;;;;;4981084;28;20068;-73
2023/05/11 08:02:50;;;;;;;2.70;1.42;;;12.50;99.90;;;;;;4980602;28;20109;-73
2023/05/11 08:05:16;;;;;;;1.80;1.10;;;12.60;99.90;;;;;;4981981;28;20417;-73
2023/05/11 08:07:42;;;;;;;3.10;1.52;;;12.70;99.90;;;;;;4981690;28;20046;-75
2023/05/11 08:10:08;;;;;;;3.08;1.70;;;12.70;99.90;;;;;;4983564;28;20122;-75
2023/05/11 08:12:35;;;;;;;3.67;1.95;;;12.70;99.90;;;;;;4999873;28;20092;-73
2023/05/11 08:15:01;;;;;;;2.10;1.90;;;12.80;99.90;;;;;;5000859;28;20045;-75
2023/05/11 08:17:27;;;;;;;3.38;1.70;;;12.80;99.90;;;;;;5001025;28;20049;-73
2023/05/11 08:19:53;;;;;;;4.38;2.08;;;12.80;99.90;;;;;;5001381;28;20318;-73
2023/05/11 08:22:18;;;;;;;6.18;2.10;;;12.90;99.90;;;;;;5005040;28;20483;-73
2023/05/11 08:24:44;;;;;;;6.38;2.38;;;12.90;99.90;;;;;;5004634;28;20045;-73
2023/05/11 08:27:09;;;;;;;6.00;2.75;;;12.90;99.90;;;;;;5004127;28;20073;-73
2023/05/11 08:29:35;;;;;;;3.78;2.08;;;13.00;99.90;;;;;;5004410;28;20041;-74
2023/05/11 08:32:01;;;;;;;7.28;2.42;;;13.00;99.90;;;;;;5004290;28;20084;-73
2023/05/11 08:34:26;;;;;;;6.40;3.28;;;13.00;99.90;;;;;;5004573;28;20038;-74
2023/05/11 08:36:53;;;;;;;7.03;2.70;;;13.00;99.90;;;;;;5004077;28;20045;-73
2023/05/11 08:39:20;;;;;;;8.10;3.22;;;13.00;99.90;;;;;;5003618;28;20096;-74
2023/05/11 08:41:48;;;;;;;7.47;4.25;;;13.10;99.90;;;;;;4985707;28;20079;-73
2023/05/11 08:44:15;;;;;;;6.75;3.17;;;13.10;99.90;;;;;;4986232;28;20065;-73
2023/05/11 08:46:42;;;;;;;8.27;3.80;;;13.10;99.90;;;;;;4999138;28;20042;-73
2023/05/11 08:49:08;;;;;;;9.23;3.75;;;13.10;99.90;;;;;;4984488;28;20507;-74
2023/05/11 08:51:34;;;;;;;6.15;2.97;;;13.10;99.90;;;;;;4983030;28;20052;-74
2023/05/11 08:53:59;;;;;;;7.95;3.25;;;13.10;99.90;;;;;;4985002;28;20039;-72
2023/05/11 08:56:26;;;;;;;7.85;3.95;;;13.20;99.90;;;;;;4990134;28;20413;-73
2023/05/11 08:58:54;;;;;;;5.97;2.85;;;13.20;99.90;;;;;;4986334;28;20440;-73
2023/05/11 09:01:22;;;;;;;6.22;3.13;;;13.20;99.90;;;;;;4983859;28;20316;-74
2023/05/11 09:03:47;;;;;;;7.88;3.95;;;13.20;99.90;;;;;;4984897;28;20050;-73
2023/05/11 09:06:15;;;;;;;6.07;3.67;;;13.20;99.90;;;;;;4999894;28;20374;-74
2023/05/11 09:08:42;;;;;;;10.90;4.28;;;13.20;99.90;;;;;;4982747;28;20046;-74
2023/05/11 09:11:08;;;;;;;9.30;4.03;;;13.30;99.90;;;;;;4993111;28;20049;-73
2023/05/11 09:13:34;;;;;;;6.25;3.63;;;13.30;99.90;;;;;;4996168;28;20104;-73
2023/05/11 09:15:59;;;;;;;8.40;4.05;;;13.30;99.90;;;;;;4963292;28;20339;-74
2023/05/11 09:18:25;;;;;;;7.13;3.65;;;13.30;99.90;;;;;;4965348;28;20046;-73
2023/05/11 09:20:51;;;;;;;7.70;3.33;;;13.30;99.90;;;;;;4963963;28;20039;-74
2023/05/11 09:23:17;;;;;;;10.20;3.22;;;13.30;99.90;;;;;;4965317;28;20397;-73
2023/05/11 09:25:43;;;;;;;10.88;3.58;;;13.30;99.90;;;;;;4962950;28;20043;-73
2023/05/11 09:28:12;;;;;;;7.05;3.05;;;13.30;99.90;;;;;;4965342;28;20046;-74
2023/05/11 09:30:38;;;;;;;6.25;3.75;;;13.40;99.90;;;;;;4963007;28;20125;-73
2023/05/11 09:33:03;;;;;;;7.30;3.38;;;13.40;99.90;;;;;;4963734;28;20700;-73
2023/05/11 09:35:32;;;;;;;7.95;3.92;;;13.40;99.90;;;;;;4964615;28;20049;-73
2023/05/11 09:37:57;;;;;;;5.57;2.38;;;13.40;99.90;;;;;;4964384;28;20414;-74
2023/05/11 09:40:24;;;;;;;5.68;2.42;;;13.40;99.90;;;;;;4964324;28;20114;-73
2023/05/11 09:42:50;;;;;;;6.60;3.92;;;13.40;99.90;;;;;;4963197;28;20054;-73
2023/05/11 09:45:39;;;;;;;10.00;2.95;;;13.40;99.90;;;;;;4963911;28;20086;-73
2023/05/11 09:48:06;;;;;;;5.00;3.28;;;13.40;99.90;;;;;;4963987;28;20054;-73
2023/05/11 09:50:34;;;;;;;9.23;3.95;;;13.40;99.90;;;;;;4964560;28;20043;-73
2023/05/11 09:52:59;;;;;;;5.63;2.95;;;13.50;99.90;;;;;;4964740;28;20253;-74
2023/05/11 09:55:25;;;;;;;6.05;3.00;;;13.50;99.90;;;;;;4965501;28;20046;-73
2023/05/11 09:57:58;;;;;;;4.40;2.30;;;13.50;99.90;;;;;;4964782;28;20043;-73
2023/05/11 10:00:24;;;;;;;4.60;2.30;;;13.60;99.90;;;;;;4963399;28;20074;-74
2023/05/11 10:03:04;;;;;;;5.32;2.60;;;13.60;99.90;;;;;;4946926;28;20047;-73
2023/05/11 10:05:35;;;;;;;3.58;2.30;;;13.70;99.90;;;;;;4963979;28;20506;-74
2023/05/11 10:08:02;;;;;;;6.80;2.30;;;13.70;99.90;;;;;;4963200;28;20049;-74
2023/05/11 10:10:30;;;;;;;4.53;3.67;;;13.70;99.90;;;;;;4973102;28;20117;-73
2023/05/11 10:13:01;;;;;;;3.60;2.15;;;13.70;99.90;;;;;;5002758;28;20054;-75
2023/05/11 10:15:29;;;;;;;4.30;2.80;;;13.80;99.90;;;;;;5001630;28;20611;-75
2023/05/11 10:17:56;;;;;;;4.22;2.28;;;13.80;99.90;;;;;;5003892;28;20045;-74
2023/05/11 10:20:26;;;;;;;4.57;2.30;;;14.00;99.90;;;;;;5003182;28;20061;-73
2023/05/11 10:22:52;;;;;;;3.78;2.00;;;14.00;99.90;;;;;;5001994;28;20046;-73
2023/05/11 10:25:21;;;;;;;4.22;2.63;;;14.00;99.90;;;;;;5002890;28;20391;-73
2023/05/11 10:27:47;;;;;;;3.42;1.83;;;14.00;99.90;;;;;;5001422;28;20042;-73
2023/05/11 10:30:14;;;;;;;4.10;2.35;;;14.00;99.90;;;;;;5002207;28;20042;-74
2023/05/11 10:32:40;;;;;;;4.35;1.95;;;14.10;99.90;;;;;;5002779;28;20496;-73
2023/05/11 10:35:06;;;;;;;3.58;2.17;;;14.10;99.90;;;;;;5002606;28;20053;-74
2023/05/11 10:37:32;;;;;;;3.03;1.90;;;14.20;99.90;;;;;;5001365;28;20056;-73
2023/05/11 10:39:58;;;;;;;5.75;2.42;;;14.20;99.90;;;;;;5001228;28;20049;-74
2023/05/11 10:42:49;;;;;;;4.30;2.20;;;14.20;99.90;;;;;;5002697;28;20050;-73
2023/05/11 10:45:25;;;;;;;5.07;2.65;;;14.20;99.90;;;;;;5000858;28;20065;-74
2023/05/11 10:47:56;;;;;;;4.82;2.92;;;14.30;99.90;;;;;;5001818;28;20049;-74
2023/05/11 10:50:42;;;;;;;4.32;2.42;;;14.30;99.90;;;;;;5002685;28;20038;-74
2023/05/11 10:53:39;;;;;;;6.50;2.47;;;14.30;99.90;;;;;;4989940;28;20133;-74
2023/05/11 10:56:41;;;;;;;5.35;2.33;;;14.40;99.90;;;;;;4966321;28;20042;-74
2023/05/11 10:59:42;;;;;;;5.72;2.40;;;14.40;99.90;;;;;;4981934;28;20042;-75
2023/05/11 11:02:07;;;;;;;4.50;2.42;;;14.40;99.90;;;;;;4981656;28;20536;-74
2023/05/11 11:04:50;;;;;;;3.03;1.83;;;14.40;99.90;;;;;;4985019;28;20081;-74
2023/05/11 11:07:17;;;;;;;3.90;2.45;;;14.40;99.90;;;;;;4981240;28;20335;-74
2023/05/11 11:09:49;;;;;;;4.10;2.42;;;14.40;99.90;;;;;;4982828;28;20055;-74
2023/05/11 11:12:15;;;;;;;6.07;3.10;;;14.50;99.90;;;;;;5002347;28;20064;-73
2023/05/11 11:14:53;;;;;;;3.55;2.13;;;14.50;99.90;;;;;;4968476;28;20485;-74
2023/05/11 11:17:24;;;;;;;2.63;2.25;;;14.60;99.90;;;;;;4983456;28;20121;-74
2023/05/11 11:19:50;;;;;;;5.43;3.15;;;14.60;99.90;;;;;;4981061;28;20038;-74
2023/05/11 11:22:34;;;;;;;3.70;2.40;;;14.70;99.90;;;;;;4982381;28;20042;-73
2023/05/11 11:25:00;;;;;;;4.78;2.55;;;14.70;99.90;;;;;;4981894;28;20054;-74
2023/05/11 11:27:44;;;;;;;5.20;2.50;;;14.80;99.90;;;;;;4980461;28;20343;-75
2023/05/11 11:30:23;;;;;;;6.50;2.22;;;14.80;99.90;;;;;;4981211;28;20137;-74
2023/05/11 11:32:51;;;;;;;5.63;2.95;;;14.80;99.90;;;;;;4982664;28;20108;-73
2023/05/11 11:35:39;;;;;;;5.70;3.45;;;14.80;99.90;;;;;;4981520;28;20039;-74
2023/05/11 11:38:13;;;;;;;4.03;2.28;;;14.90;99.90;;;;;;4970563;28;20043;-74
2023/05/11 11:40:42;;;;;;;2.63;2.40;;;14.90;99.90;;;;;;4980925;28;20042;-74
2023/05/11 11:43:18;;;;;;;3.75;2.80;;;15.00;99.90;;;;;;4982721;28;20053;-74
2023/05/11 11:45:56;;;;;;;5.90;2.60;;;15.00;99.90;;;;;;4979985;28;20089;-74
2023/05/11 11:48:41;;;;;;;4.47;2.83;;;15.10;99.90;;;;;;4983057;28;20520;-74
2023/05/11 11:51:08;;;;;;;5.05;2.30;;;15.10;99.90;;;;;;4981283;28;20121;-74
2023/05/11 11:53:36;;;;;;;3.17;2.20;;;15.20;99.90;;;;;;4964919;28;20042;-74
2023/05/11 11:56:06;;;;;;;4.57;2.80;;;15.20;99.90;;;;;;4984149;28;20523;-74
2023/05/11 11:58:42;;;;;;;3.55;2.55;;;15.30;99.90;;;;;;4986244;28;20041;-74
2023/05/11 12:01:12;;;;;;;3.67;2.25;;;15.30;99.90;;;;;;4984869;28;20416;-74
2023/05/11 12:03:40;;;;;;;3.78;2.53;;;15.30;99.90;;;;;;4985739;28;20323;-74
2023/05/11 12:06:07;;;;;;;4.43;2.25;;;15.40;99.90;;;;;;4986143;28;20552;-75
2023/05/11 12:08:34;;;;;;;3.53;2.13;;;15.40;99.90;;;;;;4968637;28;20046;-74
2023/05/11 12:11:01;;;;;;;3.95;2.40;;;15.50;99.90;;;;;;4985797;28;20045;-74
2023/05/11 12:13:27;;;;;;;3.53;2.25;;;15.50;99.90;;;;;;4985988;28;20046;-75
2023/05/11 12:16:13;;;;;;;5.45;2.78;;;15.50;99.90;;;;;;4985732;28;20046;-74
2023/05/11 12:18:39;;;;;;;5.38;3.25;;;15.60;99.90;;;;;;4972946;28;20038;-74
2023/05/11 12:21:05;;;;;;;5.28;2.50;;;15.60;99.90;;;;;;4986462;28;20046;-73
2023/05/11 12:23:31;;;;;;;5.47;2.50;;;15.70;99.90;;;;;;4984254;28;20046;-74
2023/05/11 12:26:04;;;;;;;4.78;2.78;;;15.70;99.90;;;;;;4984908;28;20495;-74
2023/05/11 12:28:33;;;;;;;4.43;2.78;;;15.70;99.90;;;;;;4996512;28;20112;-74
2023/05/11 12:30:59;;;;;;;4.88;2.80;;;15.80;99.90;;;;;;4984846;28;20116;-74
2023/05/11 12:33:25;;;;;;;5.20;2.92;;;15.80;99.90;;;;;;4985756;28;20054;-74
2023/05/11 12:35:52;;;;;;;3.78;2.53;;;15.90;99.90;;;;;;4986109;28;20388;-74
2023/05/11 12:38:17;;;;;;;4.80;2.58;;;16.00;99.90;;;;;;4985705;28;20045;-74
2023/05/11 12:40:47;;;;;;;3.05;2.17;;;16.00;99.90;;;;;;5000088;28;20034;-74
2023/05/11 12:43:16;;;;;;;3.65;2.53;;;16.00;99.90;;;;;;4984023;28;20505;-73
2023/05/11 12:45:43;;;;;;;4.28;2.50;;;16.00;99.90;;;;;;4983074;28;20057;-74
2023/05/11 12:48:10;;;;;;;5.68;2.50;;;16.10;99.90;;;;;;4968608;28;20050;-74
2023/05/11 12:50:44;;;;;;;4.18;2.20;;;16.10;99.90;;;;;;4978957;28;20034;-74
2023/05/11 12:53:20;;;;;;;3.83;2.58;;;16.10;99.90;;;;;;4972474;28;20055;-75